Time;durP1;ratioP1;P1;durP2;ratioP2;P2;SDS_P1;SDS_P2;PMS_P1;PMS_P2;Temp;Humidity;BMP_temperature;BMP_pressure;BME280_temperature;BME280_humidity;BME280_pressure;Samples;Min_cycle;Max_cycle;Signal;HPM_P1;HPM_P2
2023/01/18 00:00:58;;;;;;;;;;;-0.20;99.90;;;;;;5116753;28;19930;-57
2023/01/18 00:03:24;;;;;;;;;;;-0.20;99.90;;;;;;5127430;28;19907;-57
2023/01/18 00:05:49;;;;;;;;;;;-0.20;99.90;;;;;;5112873;28;19914;-57
2023/01/18 00:08:18;;;;;;;;;;;-0.30;99.90;;;;;;5112094;28;19916;-57
2023/01/18 00:10:44;;;;;;;;;;;-0.30;99.90;;;;;;5112402;28;20362;-56
2023/01/18 00:13:09;;;;;;;;;;;-0.30;99.90;;;;;;5113013;28;19908;-56
2023/01/18 00:15:35;;;;;;;;;;;-0.30;99.90;;;;;;5112285;28;19915;-57
2023/01/18 00:18:01;;;;;;;;;;;-0.40;99.90;;;;;;5112567;28;19908;-56
2023/01/18 00:20:27;;;;;;;;;;;-0.30;99.90;;;;;;5111881;28;19915;-57
2023/01/18 00:22:53;;;;;;;;;;;-0.30;99.90;;;;;;5117698;28;19911;-57
2023/01/18 00:25:20;;;;;;;;;;;-0.30;99.90;;;;;;5132912;28;19914;-56
2023/01/18 00:27:47;;;;;;;;;;;-0.30;99.90;;;;;;5132289;28;20223;-56
2023/01/18 00:30:13;;;;;;;;;;;-0.30;99.90;;;;;;5129108;28;19918;-57
2023/01/18 00:32:38;;;;;;;;;;;-0.30;99.90;;;;;;5112169;28;19961;-56
2023/01/18 00:35:07;;;;;;;;;;;-0.20;99.90;;;;;;5112608;28;19908;-56
2023/01/18 00:37:33;;;;;;;;;;;-0.20;99.90;;;;;;5112684;28;19912;-56
2023/01/18 00:39:58;;;;;;;;;;;-0.20;99.90;;;;;;5112285;28;19912;-55
2023/01/18 00:45:08;;;;;;;;;;;-0.20;99.90;;;;;;5117353;28;19918;-56
2023/01/18 00:47:33;;;;;;;;;;;-0.30;99.90;;;;;;5132502;28;19990;-58
2023/01/18 00:49:59;;;;;;;;;;;-0.30;99.90;;;;;;5131948;28;19973;-56
2023/01/18 00:52:24;;;;;;;;;;;-0.30;99.90;;;;;;5132883;28;19912;-57
2023/01/18 00:54:50;;;;;;;;;;;-0.20;99.90;;;;;;5132751;28;20338;-57
2023/01/18 00:57:15;;;;;;;;;;;-0.30;99.90;;;;;;5133127;27;19907;-55
2023/01/18 00:59:41;;;;;;;;;;;-0.30;99.90;;;;;;5136031;27;20011;-56
2023/01/18 01:02:06;;;;;;;;;;;-0.20;99.90;;;;;;5136410;27;19911;-56
2023/01/18 01:07:15;;;;;;;;;;;-0.20;99.90;;;;;;5135673;27;19980;-59
2023/01/18 01:09:43;;;;;;;;;;;-0.30;99.90;;;;;;5136457;27;20354;-57
2023/01/18 01:26:07;;;;;;;;;;;-0.20;99.90;;;;;;5116348;28;20029;-58
2023/01/18 01:28:36;;;;;;;;;;;-0.20;99.90;;;;;;5122036;27;19912;-56
2023/01/18 01:31:02;;;;;;;;;;;-0.20;99.90;;;;;;5116262;27;19912;-56
2023/01/18 01:33:29;;;;;;;;;;;-0.20;99.90;;;;;;5115683;28;19915;-55
2023/01/18 01:36:05;;;;;;;;;;;-0.20;99.90;;;;;;5115157;28;19961;-55
2023/01/18 01:38:30;;;;;;;;;;;-0.20;99.90;;;;;;5115391;28;20119;-55
2023/01/18 01:41:01;;;;;;;;;;;-0.20;99.90;;;;;;5118608;27;20470;-57
2023/01/18 01:43:38;;;;;;;;;;;-0.20;99.90;;;;;;5117510;27;19915;-56
2023/01/18 01:46:09;;;;;;;;;;;-0.30;99.90;;;;;;5114935;28;19912;-57
2023/01/18 01:48:34;;;;;;;;;;;-0.30;99.90;;;;;;5115531;28;20275;-54
2023/01/18 01:51:01;;;;;;;;;;;-0.30;99.90;;;;;;5127052;27;20424;-57
2023/01/18 01:53:27;;;;;;;;;;;-0.40;99.90;;;;;;5114804;28;20045;-57
2023/01/18 01:55:52;;;;;;;;;;;-0.40;99.90;;;;;;5115403;28;19994;-55
2023/01/18 01:58:21;;;;;;;;;;;-0.50;99.90;;;;;;5114298;28;19914;-56
2023/01/18 02:00:46;;;;;;;;;;;-0.50;99.90;;;;;;5114861;28;19969;-56
2023/01/18 02:03:16;;;;;;;;;;;-0.50;99.90;;;;;;5114592;28;19911;-58
2023/01/18 02:05:44;;;;;;;;;;;-0.50;99.90;;;;;;5114911;28;19915;-56
2023/01/18 02:08:12;;;;;;;;;;;-0.50;99.90;;;;;;5114550;28;19908;-54
2023/01/18 02:10:38;;;;;;;;;;;-0.40;99.90;;;;;;5114507;28;19908;-56
2023/01/18 02:13:08;;;;;;;;;;;-0.40;99.90;;;;;;5114355;28;19962;-57
2023/01/18 02:15:38;;;;;;;;;;;-0.40;99.90;;;;;;5135552;27;20167;-56
2023/01/18 02:18:17;;;;;;;;;;;-0.40;99.90;;;;;;5134957;27;19953;-56
2023/01/18 02:21:00;;;;;;;;;;;-0.30;99.90;;;;;;5128899;27;19920;-56
2023/01/18 02:23:55;;;;;;;;;;;-0.30;99.90;;;;;;5117706;27;19912;-55
2023/01/18 02:26:29;;;;;;;;;;;-0.30;99.90;;;;;;5114486;28;19912;-56
2023/01/18 02:28:58;;;;;;;;;;;-0.20;99.90;;;;;;5123782;27;19919;-55
2023/01/18 02:31:29;;;;;;;;;;;-0.20;99.90;;;;;;5121532;27;19912;-56
2023/01/18 02:33:54;;;;;;;;;;;-0.20;99.90;;;;;;5114348;28;19915;-57
2023/01/18 02:36:25;;;;;;;;;;;-0.30;99.90;;;;;;5114476;28;19916;-57
2023/01/18 02:38:53;;;;;;;;;;;-0.30;99.90;;;;;;5114108;28;19961;-57
2023/01/18 02:41:23;;;;;;;;;;;-0.40;99.90;;;;;;5114455;27;19916;-56
2023/01/18 02:46:46;;;;;;;;;;;-0.40;99.90;;;;;;5058205;28;19916;-56
2023/01/18 02:49:21;;;;;;;;;;;-0.50;99.90;;;;;;5113663;28;19908;-57
2023/01/18 02:51:46;;;;;;;;;;;-0.50;99.90;;;;;;5113451;28;19912;-56
2023/01/18 02:54:22;;;;;;;;;;;-0.60;99.90;;;;;;5120930;27;19942;-56
2023/01/18 02:56:50;;;;;;;;;;;-0.60;99.90;;;;;;5134472;27;19911;-56
2023/01/18 02:59:19;;;;;;;;;;;-0.60;99.90;;;;;;5117002;27;19933;-56
2023/01/18 03:01:59;;;;;;;;;;;-0.70;99.90;;;;;;5113444;27;19951;-56
2023/01/18 03:04:27;;;;;;;;;;;-0.70;99.90;;;;;;5113526;27;19916;-56
2023/01/18 03:06:56;;;;;;;;;;;-0.70;99.90;;;;;;5113600;28;19908;-56
2023/01/18 03:09:26;;;;;;;;;;;-0.70;99.90;;;;;;5113008;28;19918;-56
2023/01/18 03:11:54;;;;;;;;;;;-0.70;99.90;;;;;;5113941;28;19908;-56
2023/01/18 03:14:30;;;;;;;;;;;-0.80;99.90;;;;;;5112684;28;19912;-56
2023/01/18 03:16:58;;;;;;;;;;;-0.80;99.90;;;;;;5113445;28;20359;-56
2023/01/18 03:22:15;;;;;;;;;;;-0.80;99.90;;;;;;5113369;28;19922;-56
2023/01/18 03:24:42;;;;;;;;;;;-0.90;99.90;;;;;;5113412;28;19915;-56
2023/01/18 03:35:27;;;;;;;;;;;-0.90;99.90;;;;;;5113253;28;20004;-56
2023/01/18 03:37:53;;;;;;;;;;;-0.90;99.90;;;;;;5113236;28;19908;-56
2023/01/18 03:40:25;;;;;;;;;;;-1.00;99.90;;;;;;5113237;28;19915;-55
2023/01/18 03:43:02;;;;;;;;;;;-1.00;99.90;;;;;;5123204;27;19922;-55
2023/01/18 03:45:37;;;;;;;;;;;-1.00;99.90;;;;;;5133618;27;19907;-55
2023/01/18 03:48:03;;;;;;;;;;;-1.00;99.90;;;;;;5130233;27;19972;-55
2023/01/18 03:50:36;;;;;;;;;;;-1.00;99.90;;;;;;5112718;28;19915;-56
2023/01/18 03:53:05;;;;;;;;;;;-1.10;99.90;;;;;;5112139;28;19919;-55
2023/01/18 03:55:39;;;;;;;;;;;-1.00;99.90;;;;;;5114635;27;19962;-56
2023/01/18 03:58:08;;;;;;;;;;;-1.10;99.90;;;;;;5113029;28;19953;-55
2023/01/18 04:00:34;;;;;;;;;;;-1.10;99.90;;;;;;5113083;28;19916;-55
2023/01/18 04:03:00;;;;;;;;;;;-1.10;99.90;;;;;;5112584;28;20497;-55
2023/01/18 04:05:25;;;;;;;;;;;-1.10;99.90;;;;;;5112858;28;19912;-55
2023/01/18 04:07:51;;;;;;;;;;;-1.20;99.90;;;;;;5117110;28;19914;-55
2023/01/18 04:10:16;;;;;;;;;;;-1.20;99.90;;;;;;5132983;28;20002;-55
2023/01/18 04:12:42;;;;;;;;;;;-1.20;99.90;;;;;;5118410;28;19912;-55
2023/01/18 04:15:07;;;;;;;;;;;-1.20;99.90;;;;;;5113067;28;20336;-55
2023/01/18 04:17:33;;;;;;;;;;;-1.10;99.90;;;;;;5112446;28;20072;-55
2023/01/18 04:19:58;;;;;;;;;;;-1.10;99.90;;;;;;5125640;28;19915;-55
2023/01/18 04:22:24;;;;;;;;;;;-1.10;99.90;;;;;;5130829;28;19926;-55
2023/01/18 04:24:49;;;;;;;;;;;-1.10;99.90;;;;;;5131472;28;19908;-55
2023/01/18 04:27:15;;;;;;;;;;;-1.00;99.90;;;;;;5130451;28;19912;-55
2023/01/18 04:29:40;;;;;;;;;;;-1.10;99.90;;;;;;5131218;28;19919;-55
2023/01/18 04:32:06;;;;;;;;;;;-1.10;99.90;;;;;;5133023;27;19911;-55
2023/01/18 04:34:32;;;;;;;;;;;-1.10;99.90;;;;;;5135715;27;19960;-55
2023/01/18 04:36:57;;;;;;;;;;;-1.00;99.90;;;;;;5135334;27;19916;-55
2023/01/18 04:39:23;;;;;;;;;;;-1.00;99.90;;;;;;5135391;27;19964;-55
2023/01/18 04:41:48;;;;;;;;;;;-1.00;99.90;;;;;;5132733;27;19919;-54
2023/01/18 04:44:14;;;;;;;;;;;-1.00;99.90;;;;;;5128592;27;19951;-55
2023/01/18 04:46:39;;;;;;;;;;;-1.00;99.90;;;;;;5135776;27;19951;-52
2023/01/18 04:49:06;;;;;;;;;;;-1.00;99.90;;;;;;5135167;27;20335;-54
2023/01/18 04:51:31;;;;;;;;;;;-0.90;99.90;;;;;;5119016;27;21956;-55
2023/01/18 04:53:57;;;;;;;;;;;-0.90;99.90;;;;;;5115342;28;19919;-53
2023/01/18 04:56:23;;;;;;;;;;;-0.90;99.90;;;;;;5116083;28;20401;-54
2023/01/18 04:58:51;;;;;;;;;;;-0.90;99.90;;;;;;5129066;27;19951;-55
2023/01/18 05:01:16;;;;;;;;;;;-0.90;99.90;;;;;;5115528;28;19970;-55
2023/01/18 05:03:42;;;;;;;;;;;-0.90;99.90;;;;;;5116331;28;19947;-56
2023/01/18 05:06:08;;;;;;;;;;;-0.90;99.90;;;;;;5115683;28;19908;-54
2023/01/18 05:08:34;;;;;;;;;;;-0.90;99.90;;;;;;5115921;28;19939;-55
2023/01/18 05:11:03;;;;;;;;;;;-0.90;99.90;;;;;;5115748;28;19919;-53
2023/01/18 05:13:29;;;;;;;;;;;-0.90;99.90;;;;;;5115551;28;19907;-55
2023/01/18 05:15:55;;;;;;;;;;;-0.90;99.90;;;;;;5115868;28;20355;-55
2023/01/18 05:18:20;;;;;;;;;;;-1.00;99.90;;;;;;5115298;27;20133;-54
2023/01/18 05:20:46;;;;;;;;;;;-1.00;99.90;;;;;;5129765;27;19915;-56
2023/01/18 05:23:13;;;;;;;;;;;-1.10;99.90;;;;;;5136288;27;19930;-55
2023/01/18 05:25:38;;;;;;;;;;;-1.10;99.90;;;;;;5135283;27;19911;-56
2023/01/18 05:28:05;;;;;;;;;;;-1.10;99.90;;;;;;5135888;27;20340;-54
2023/01/18 05:30:30;;;;;;;;;;;-1.20;99.90;;;;;;5136056;27;20406;-53
2023/01/18 05:32:55;;;;;;;;;;;-1.20;99.90;;;;;;5136428;27;19995;-56
2023/01/18 05:35:21;;;;;;;;;;;-1.20;99.90;;;;;;5135663;27;20259;-53
2023/01/18 05:37:47;;;;;;;;;;;-1.20;99.90;;;;;;5134273;27;19908;-53
2023/01/18 05:40:13;;;;;;;;;;;-1.20;99.90;;;;;;5115051;28;19970;-55
2023/01/18 05:42:38;;;;;;;;;;;-1.20;99.90;;;;;;5114835;28;20397;-53
2023/01/18 05:45:04;;;;;;;;;;;-1.20;99.90;;;;;;5114714;28;19953;-55
2023/01/18 05:47:29;;;;;;;;;;;-1.20;99.90;;;;;;5115389;28;19999;-52
2023/01/18 05:49:56;;;;;;;;;;;-1.20;99.90;;;;;;5114215;28;20286;-53
2023/01/18 05:52:22;;;;;;;;;;;-1.10;99.90;;;;;;5114933;28;19915;-55
2023/01/18 05:54:47;;;;;;;;;;;-1.10;99.90;;;;;;5114690;27;19912;-53
2023/01/18 05:57:13;;;;;;;;;;;-1.10;99.90;;;;;;5114621;28;20369;-53
2023/01/18 05:59:38;;;;;;;;;;;-1.10;99.90;;;;;;5133533;27;19919;-54
2023/01/18 06:02:04;;;;;;;;;;;-1.10;99.90;;;;;;5135714;27;19991;-52
2023/01/18 06:04:29;;;;;;;;;;;-1.10;99.90;;;;;;5134873;27;19907;-53
2023/01/18 06:06:55;;;;;;;;;;;-1.10;99.90;;;;;;5135636;27;19941;-53
2023/01/18 06:09:21;;;;;;;;;;;-1.00;99.90;;;;;;5118013;27;19923;-53
2023/01/18 06:11:46;;;;;;;;;;;-1.00;99.90;;;;;;5114953;28;19908;-55
2023/01/18 06:14:12;;;;;;;;;;;-1.00;99.90;;;;;;5115080;28;20277;-56
2023/01/18 06:16:37;;;;;;;;;;;-1.00;99.90;;;;;;5114412;28;20330;-53
2023/01/18 06:19:03;;;;;;;;;;;-1.00;99.90;;;;;;5113946;27;20028;-55
2023/01/18 06:21:28;;;;;;;;;;;-1.00;99.90;;;;;;5114793;28;20316;-54
2023/01/18 06:23:54;;;;;;;;;;;-1.00;99.90;;;;;;5113699;28;19999;-53
2023/01/18 06:26:19;;;;;;;;;;;-1.00;99.90;;;;;;5114542;28;19931;-55
2023/01/18 06:28:45;;;;;;;;;;;-1.00;99.90;;;;;;5114627;28;19915;-53
2023/01/18 06:31:10;;;;;;;;;;;-1.00;99.90;;;;;;5114141;28;19912;-54
2023/01/18 06:33:36;;;;;;;;;;;-0.90;99.90;;;;;;5115248;27;19923;-56
2023/01/18 06:36:01;;;;;;;;;;;-0.90;99.90;;;;;;5142742;27;19918;-54
2023/01/18 06:38:28;;;;;;;;;;;-0.90;99.90;;;;;;5122079;27;19911;-54
2023/01/18 06:40:54;;;;;;;;;;;-0.90;99.90;;;;;;5126900;27;19924;-54
2023/01/18 06:43:19;;;;;;;;;;;-0.80;99.90;;;;;;5124182;27;19972;-54
2023/01/18 06:45:50;;;;;;;;;;;-0.90;99.90;;;;;;5117447;27;20430;-54
2023/01/18 06:48:15;;;;;;;;;;;-0.90;99.90;;;;;;5114430;27;19908;-55
2023/01/18 06:50:41;;;;;;;;;;;-1.00;99.90;;;;;;5127774;27;19912;-53
2023/01/18 06:53:06;;;;;;;;;;;-1.00;99.90;;;;;;5133171;27;19919;-52
2023/01/18 06:55:33;;;;;;;;;;;-1.00;99.90;;;;;;5132716;27;19911;-54
2023/01/18 06:58:00;;;;;;;;;;;-1.00;99.90;;;;;;5134887;27;19908;-53
2023/01/18 07:00:25;;;;;;;;;;;-1.10;99.90;;;;;;5117421;27;19924;-54
2023/01/18 07:02:51;;;;;;;;;;;-1.10;99.90;;;;;;5132125;27;19914;-54
2023/01/18 07:05:17;;;;;;;;;;;-1.20;99.90;;;;;;5129351;27;19908;-52
2023/01/18 07:07:44;;;;;;;;;;;-1.20;99.90;;;;;;5122566;27;20017;-54
2023/01/18 07:10:10;;;;;;;;;;;-1.20;99.90;;;;;;5134449;27;19908;-55
2023/01/18 07:12:35;;;;;;;;;;;-1.30;99.90;;;;;;5134125;27;20014;-51
2023/01/18 07:15:01;;;;;;;;;;;-1.30;99.90;;;;;;5134201;27;20010;-52
2023/01/18 07:17:26;;;;;;;;;;;-1.30;99.90;;;;;;5134102;27;19911;-53
2023/01/18 07:19:52;;;;;;;;;;;-1.40;99.90;;;;;;5133061;27;20041;-55
2023/01/18 07:22:17;;;;;;;;;;;-1.40;99.90;;;;;;5128849;27;20008;-53
2023/01/18 07:24:44;;;;;;;;;;;-1.40;99.90;;;;;;5133938;27;19907;-53
2023/01/18 07:27:09;;;;;;;;;;;-1.40;99.90;;;;;;5131917;27;19927;-50
2023/01/18 07:29:35;;;;;;;;;;;-1.40;99.90;;;;;;5132409;27;19998;-49
2023/01/18 07:32:01;;;;;;;;;;;-1.40;99.90;;;;;;5133009;27;20271;-50
2023/01/18 07:34:26;;;;;;;;;;;-1.30;99.90;;;;;;5131682;27;19926;-50
2023/01/18 07:36:53;;;;;;;;;;;-1.30;99.90;;;;;;5131065;27;20358;-51
2023/01/18 07:39:19;;;;;;;;;;;-1.30;99.90;;;;;;5128396;27;19934;-51
2023/01/18 07:41:45;;;;;;;;;;;-1.30;99.90;;;;;;5127654;27;19969;-51
2023/01/18 07:44:10;;;;;;;;;;;-1.30;99.90;;;;;;5132116;27;19954;-51
2023/01/18 07:46:36;;;;;;;;;;;-1.20;99.90;;;;;;5132287;27;19908;-52
2023/01/18 07:49:04;;;;;;;;;;;-1.30;99.90;;;;;;5131010;27;19912;-54
2023/01/18 07:51:30;;;;;;;;;;;-1.30;99.90;;;;;;5128974;27;19949;-54
2023/01/18 07:53:56;;;;;;;;;;;-1.30;99.90;;;;;;5126860;27;19962;-50
2023/01/18 07:56:24;;;;;;;;;;;-1.30;99.90;;;;;;5118814;27;19912;-52
2023/01/18 07:58:49;;;;;;;;;;;-1.30;99.90;;;;;;5148531;27;19911;-50
2023/01/18 08:01:16;;;;;;;;;;;-1.30;99.90;;;;;;5138462;27;20297;-51
2023/01/18 08:03:42;;;;;;;;;;;-1.30;99.90;;;;;;5133083;28;19908;-51
2023/01/18 08:06:08;;;;;;;;;;;-1.30;99.90;;;;;;5128641;27;20006;-48
2023/01/18 08:08:34;;;;;;;;;;;-1.20;99.90;;;;;;5140343;27;19908;-48
2023/01/18 08:11:00;;;;;;;;;;;-1.20;99.90;;;;;;5139639;27;19908;-53
2023/01/18 08:13:26;;;;;;;;;;;-1.20;99.90;;;;;;5140290;27;19912;-50
2023/01/18 08:15:52;;;;;;;;;;;-1.20;99.90;;;;;;5139971;27;20267;-52
2023/01/18 08:18:18;;;;;;;;;;;-1.20;99.90;;;;;;5118396;27;19912;-54
2023/01/18 08:20:47;;;;;;;;;;;-1.10;99.90;;;;;;5119530;27;19927;-50
2023/01/18 08:23:14;;;;;;;;;;;-1.10;99.90;;;;;;5119838;28;20062;-51
2023/01/18 08:25:40;;;;;;;;;;;-1.10;99.90;;;;;;5118778;27;19908;-47
2023/01/18 08:28:07;;;;;;;;;;;-1.10;99.90;;;;;;5121631;27;20382;-48
2023/01/18 08:30:40;;;;;;;;;;;-1.00;99.90;;;;;;5126280;27;19970;-51
2023/01/18 08:33:06;;;;;;;;;;;-1.00;99.90;;;;;;5118820;27;19950;-47
2023/01/18 08:35:33;;;;;;;;;;;-1.00;99.90;;;;;;5140031;27;19915;-51
2023/01/18 08:38:00;;;;;;;;;;;-0.90;99.90;;;;;;5139771;27;19908;-49
2023/01/18 08:40:26;;;;;;;;;;;-0.90;99.90;;;;;;5139667;27;19965;-47
2023/01/18 08:42:55;;;;;;;;;;;-0.90;99.90;;;;;;5139853;27;19943;-49
2023/01/18 08:45:20;;;;;;;;;;;-0.90;99.90;;;;;;5138722;27;19914;-51
2023/01/18 08:47:46;;;;;;;;;;;-0.90;99.90;;;;;;5118089;27;19908;-52
2023/01/18 08:50:12;;;;;;;;;;;-0.80;99.90;;;;;;5119097;28;19969;-49
2023/01/18 08:52:37;;;;;;;;;;;-0.80;99.90;;;;;;5118099;28;20263;-52
2023/01/18 08:55:03;;;;;;;;;;;-0.70;99.90;;;;;;5119471;27;19955;-50
2023/01/18 08:57:29;;;;;;;;;;;-0.70;99.90;;;;;;5129275;27;19912;-51
2023/01/18 08:59:55;;;;;;;;;;;-0.60;99.90;;;;;;5133830;27;19929;-51
2023/01/18 09:02:21;;;;;;;;;;;-0.50;99.90;;;;;;5119223;28;19918;-51
2023/01/18 09:04:47;;;;;;;;;;;-0.40;99.90;;;;;;5120507;27;19920;-49
2023/01/18 09:07:15;;;;;;;;;;;-0.40;99.90;;;;;;5130745;27;20120;-51
2023/01/18 09:09:40;;;;;;;;;;;-0.30;99.90;;;;;;5136932;27;20002;-49
2023/01/18 09:12:06;;;;;;;;;;;-0.20;99.90;;;;;;5138709;27;19919;-51
2023/01/18 09:14:31;;;;;;;;;;;-0.10;99.90;;;;;;5138962;27;19918;-49
2023/01/18 09:16:57;;;;;;;;;;;-0.10;99.90;;;;;;5130000;27;19955;-54
2023/01/18 09:19:22;;;;;;;;;;;0.00;99.90;;;;;;5119266;27;20332;-49
2023/01/18 09:21:49;;;;;;;;;;;0.10;99.90;;;;;;5124623;27;19926;-53
2023/01/18 09:24:14;;;;;;;;;;;0.10;99.90;;;;;;5136433;27;19908;-52
2023/01/18 09:26:39;;;;;;;;;;;0.20;99.90;;;;;;5133495;27;20338;-50
2023/01/18 09:29:05;;;;;;;;;;;0.30;99.90;;;;;;5126920;27;19908;-49
2023/01/18 09:31:31;;;;;;;;;;;0.40;99.90;;;;;;5115381;28;19912;-55
2023/01/18 09:33:56;;;;;;;;;;;0.40;99.90;;;;;;5129324;27;19911;-51
2023/01/18 09:36:25;;;;;;;;;;;0.50;99.90;;;;;;5135822;27;19907;-50
2023/01/18 09:38:50;;;;;;;;;;;0.60;99.90;;;;;;5134985;27;19932;-53
2023/01/18 09:41:22;;;;;;;;;;;0.70;99.90;;;;;;5135339;27;19931;-49
2023/01/18 09:43:49;;;;;;;;;;;0.70;99.90;;;;;;5135762;27;19994;-52
2023/01/18 09:46:18;;;;;;;;;;;0.80;99.90;;;;;;5131554;27;19911;-51
2023/01/18 09:48:44;;;;;;;;;;;0.80;99.90;;;;;;5130857;27;19919;-54
2023/01/18 09:51:19;;;;;;;;;;;0.80;99.90;;;;;;5134309;27;19991;-52
2023/01/18 09:54:01;;;;;;;;;;;0.80;99.90;;;;;;5132318;27;20397;-50
2023/01/18 09:56:30;;;;;;;;;;;0.80;99.90;;;;;;5128857;27;20014;-53
2023/01/18 09:58:56;;;;;;;;;;;0.80;99.90;;;;;;5125239;27;20073;-53
2023/01/18 10:01:24;;;;;;;;;;;0.90;99.90;;;;;;5131097;27;20255;-58
2023/01/18 10:03:49;;;;;;;;;;;0.90;99.90;;;;;;5127043;27;20286;-54
2023/01/18 10:06:29;;;;;;;;;;;0.90;99.90;;;;;;5130206;27;20361;-55
2023/01/18 10:09:09;;;;;;;;;;;0.90;99.90;;;;;;5132378;27;19918;-53
2023/01/18 10:11:37;;;;;;;;;;;0.90;99.90;;;;;;5134126;27;19956;-55
2023/01/18 10:14:05;;;;;;;;;;;1.00;99.90;;;;;;5134112;27;20010;-56
2023/01/18 10:16:32;;;;;;;;;;;1.10;99.90;;;;;;5134918;27;19955;-53
2023/01/18 10:18:57;;;;;;;;;;;1.20;99.90;;;;;;5135115;27;19935;-55
2023/01/18 10:21:32;;;;;;;;;;;1.40;99.90;;;;;;5135081;27;20350;-54
2023/01/18 10:24:23;;;;;;;;;;;1.50;99.90;;;;;;5133360;27;20460;-54
2023/01/18 10:26:51;;;;;;;;;;;1.60;99.90;;;;;;5130623;27;19908;-54
2023/01/18 10:29:37;;;;;;;;;;;1.70;99.90;;;;;;5132377;27;19943;-56
2023/01/18 10:32:11;;;;;;;;;;;1.80;99.90;;;;;;5134369;27;20000;-54
2023/01/18 10:34:40;;;;;;;;;;;1.90;99.90;;;;;;5132974;27;19911;-57
2023/01/18 10:37:23;;;;;;;;;;;2.00;99.90;;;;;;5132277;27;19919;-56
2023/01/18 10:39:50;;;;;;;;;;;2.10;99.90;;;;;;5134707;27;19954;-55
2023/01/18 10:42:18;;;;;;;;;;;2.20;99.90;;;;;;5130836;27;19926;-57
2023/01/18 10:44:44;;;;;;;;;;;2.20;99.90;;;;;;5129865;27;19911;-56
2023/01/18 10:47:10;;;;;;;;;;;2.30;99.90;;;;;;5134745;27;19919;-55
2023/01/18 10:49:38;;;;;;;;;;;2.40;99.90;;;;;;5126309;27;20014;-57
2023/01/18 10:52:15;;;;;;;;;;;2.40;99.90;;;;;;5123483;27;19998;-55
2023/01/18 10:54:48;;;;;;;;;;;2.50;99.90;;;;;;5134781;27;19960;-57
2023/01/18 10:57:18;;;;;;;;;;;2.60;99.90;;;;;;5134725;27;19912;-56
2023/01/18 10:59:44;;;;;;;;;;;2.60;99.90;;;;;;5132794;27;19914;-54
2023/01/18 11:02:19;;;;;;;;;;;2.70;99.90;;;;;;5134429;27;19920;-56
2023/01/18 11:04:51;;;;;;;;;;;2.80;99.90;;;;;;5128226;27;19915;-56
2023/01/18 11:07:22;;;;;;;;;;;2.90;99.90;;;;;;5120247;27;19915;-56
2023/01/18 11:09:54;;;;;;;;;;;2.90;99.90;;;;;;5126887;27;19912;-56
2023/01/18 11:12:33;;;;;;;;;;;3.00;99.90;;;;;;5131991;27;20342;-54
2023/01/18 11:15:19;;;;;;;;;;;3.00;99.90;;;;;;5129149;27;19911;-55
2023/01/18 11:17:59;;;;;;;;;;;3.00;99.90;;;;;;5134484;27;19907;-56
2023/01/18 11:20:45;;;;;;;;;;;3.10;99.90;;;;;;5132883;27;19911;-55
2023/01/18 11:23:13;;;;;;;;;;;3.20;99.90;;;;;;5131369;27;19984;-55
2023/01/18 11:25:41;;;;;;;;;;;3.30;99.90;;;;;;5119086;27;19915;-55
2023/01/18 11:28:16;;;;;;;;;;;3.40;99.90;;;;;;5114780;27;19912;-56
2023/01/18 11:30:48;;;;;;;;;;;3.40;99.90;;;;;;5133136;27;20010;-56
2023/01/18 11:33:17;;;;;;;;;;;3.50;99.90;;;;;;5130199;27;19915;-55
2023/01/18 11:35:44;;;;;;;;;;;3.50;99.90;;;;;;5133005;27;20404;-56
2023/01/18 11:38:17;;;;;;;;;;;3.60;99.90;;;;;;5133499;27;20014;-55
2023/01/18 11:40:42;;;;;;;;;;;3.60;99.90;;;;;;5132132;27;19920;-56
2023/01/18 11:43:08;;;;;;;;;;;3.70;99.90;;;;;;5131032;27;20006;-56
2023/01/18 11:45:47;;;;;;;;;;;3.80;99.90;;;;;;5126180;27;19918;-55
2023/01/18 11:48:21;;;;;;;;;;;3.80;99.90;;;;;;5122295;27;20009;-55
2023/01/18 11:50:56;;;;;;;;;;;3.90;99.90;;;;;;5132031;27;19908;-55
2023/01/18 11:53:27;;;;;;;;;;;4.00;99.90;;;;;;5127879;27;19930;-56
2023/01/18 11:56:00;;;;;;;;;;;4.00;99.90;;;;;;5131923;27;20304;-55
2023/01/18 11:58:29;;;;;;;;;;;4.10;99.90;;;;;;5132910;27;20385;-56
2023/01/18 12:01:09;;;;;;;;;;;4.20;99.90;;;;;;5111797;27;19925;-56
2023/01/18 12:03:36;;;;;;;;;;;4.20;99.90;;;;;;5131990;27;20005;-55
2023/01/18 12:06:15;;;;;;;;;;;4.30;99.90;;;;;;5130614;28;19915;-56
2023/01/18 12:08:50;;;;;;;;;;;4.30;99.90;;;;;;5118875;28;20443;-56
2023/01/18 12:11:42;;;;;;;;;;;4.30;99.90;;;;;;5113031;28;19955;-56
2023/01/18 12:14:23;;;;;;;;;;;4.40;99.90;;;;;;5109586;28;19915;-56
2023/01/18 12:17:15;;;;;;;;;;;4.50;99.90;;;;;;5112202;28;20381;-56
2023/01/18 12:19:40;;;;;;;;;;;4.50;99.90;;;;;;5119068;27;19922;-57
2023/01/18 12:22:24;;;;;;;;;;;4.50;99.90;;;;;;5146633;27;20323;-55
2023/01/18 12:25:08;;;;;;;;;;;4.60;99.90;;;;;;5123918;28;19915;-56
2023/01/18 12:27:50;;;;;;;;;;;4.60;99.90;;;;;;5132235;28;19907;-56
2023/01/18 12:30:31;;;;;;;;;;;4.60;99.90;;;;;;5131679;28;19969;-56
2023/01/18 12:33:16;;;;;;;;;;;4.70;99.90;;;;;;5132415;28;20418;-57
2023/01/18 12:35:49;;;;;;;;;;;4.70;99.90;;;;;;5132025;28;19929;-56
2023/01/18 12:38:17;;;;;;;;;;;4.80;99.90;;;;;;5129844;28;19961;-56
2023/01/18 12:40:49;;;;;;;;;;;4.80;99.90;;;;;;5132616;28;19961;-58
2023/01/18 12:43:14;;;;;;;;;;;4.90;99.90;;;;;;5131909;28;19915;-58
2023/01/18 12:45:41;;;;;;;;;;;4.90;99.90;;;;;;5131883;28;19980;-57
2023/01/18 12:48:09;;;;;;;;;;;5.00;99.90;;;;;;5127531;27;19919;-57
2023/01/18 12:50:36;;;;;;;;;;;5.00;99.90;;;;;;5123997;28;19914;-58
2023/01/18 12:53:04;;;;;;;;;;;5.00;99.90;;;;;;5120459;27;19938;-56
2023/01/18 12:55:31;;;;;;;;;;;5.00;99.90;;;;;;5127250;27;19919;-58
2023/01/18 12:57:57;;;;;;;;;;;5.00;99.90;;;;;;5132585;27;19911;-57
2023/01/18 13:00:32;;;;;;;;;;;5.00;99.90;;;;;;5133049;27;19912;-58
2023/01/18 13:02:58;;;;;;;;;;;5.10;99.90;;;;;;5130985;27;19976;-56
2023/01/18 13:05:23;;;;;;;;;;;5.10;99.90;;;;;;5134561;27;20362;-56
2023/01/18 13:08:05;;;;;;;;;;;5.10;99.90;;;;;;5135172;27;19911;-56
2023/01/18 13:10:31;;;;;;;;;;;5.10;99.90;;;;;;5129112;27;20370;-57
2023/01/18 13:12:57;;;;;;;;;;;5.10;99.90;;;;;;5132943;27;19908;-57
2023/01/18 13:15:27;;;;;;;;;;;5.10;99.90;;;;;;5127595;27;20392;-58
2023/01/18 13:17:56;;;;;;;;;;;5.10;99.90;;;;;;5130377;27;19919;-56
2023/01/18 13:20:27;;;;;;;;;;;5.20;99.90;;;;;;5126982;27;20334;-55
2023/01/18 13:23:13;;;;;;;;;;;5.20;99.90;;;;;;5118538;27;19912;-56
2023/01/18 13:25:50;;;;;;;;;;;5.10;99.90;;;;;;5124001;27;20663;-59
2023/01/18 13:28:20;;;;;;;;;;;5.20;99.90;;;;;;5127295;27;19956;-54
2023/01/18 13:30:53;;;;;;;;;;;5.30;99.90;;;;;;5121602;27;19964;-56
2023/01/18 13:33:21;;;;;;;;;;;5.30;99.90;;;;;;5130635;27;20343;-57
2023/01/18 13:35:52;;;;;;;;;;;5.30;99.90;;;;;;5117187;27;19908;-57
2023/01/18 13:38:18;;;;;;;;;;;5.30;99.90;;;;;;5122987;27;19908;-57
2023/01/18 13:40:51;;;;;;;;;;;5.30;99.90;;;;;;5121214;27;20035;-55
2023/01/18 13:43:28;;;;;;;;;;;5.40;99.90;;;;;;5129512;27;19911;-57
2023/01/18 13:46:02;;;;;;;;;;;5.50;99.90;;;;;;5134444;27;20358;-57
2023/01/18 13:48:40;;;;;;;;;;;5.50;99.90;;;;;;5118318;27;19923;-55
2023/01/18 13:51:08;;;;;;;;;;;5.40;99.90;;;;;;5127326;27;19919;-56
2023/01/18 13:53:47;;;;;;;;;;;5.20;99.90;;;;;;5134913;27;19919;-57
2023/01/18 13:56:20;;;;;;;;;;;4.90;99.90;;;;;;5135879;27;19912;-56
2023/01/18 13:58:51;;;;;;;;;;;4.80;99.90;;;;;;5135898;27;19908;-55
2023/01/18 14:01:21;;;;;;;;;;;4.70;99.90;;;;;;5127227;27;19919;-56
2023/01/18 14:03:48;;;;;;;;;;;4.50;99.90;;;;;;5115440;27;19907;-56
2023/01/18 14:06:34;;;;;;;;;;;4.50;99.90;;;;;;5114852;28;19907;-54
2023/01/18 14:09:07;;;;;;;;;;;4.40;99.90;;;;;;5114591;28;19908;-57
2023/01/18 14:11:35;;;;;;;;;;;4.30;99.90;;;;;;5115044;28;19947;-55
2023/01/18 14:14:02;;;;;;;;;;;4.30;99.90;;;;;;5115000;28;19907;-55
2023/01/18 14:16:30;;;;;;;;;;;4.20;99.90;;;;;;5113579;28;19908;-54
2023/01/18 14:19:07;;;;;;;;;;;4.20;99.90;;;;;;5131271;27;19998;-55
2023/01/18 14:21:33;;;;;;;;;;;4.20;99.90;;;;;;5118358;27;19924;-56
2023/01/18 14:24:18;;;;;;;;;;;4.10;99.90;;;;;;5133824;27;20327;-57
2023/01/18 14:26:44;;;;;;;;;;;4.10;99.90;;;;;;5133580;27;20350;-55
2023/01/18 14:29:10;;;;;;;;;;;4.10;99.90;;;;;;5117343;27;19973;-56
2023/01/18 14:31:41;;;;;;;;;;;4.10;99.90;;;;;;5126813;27;20293;-56
2023/01/18 14:34:22;;;;;;;;;;;4.10;99.90;;;;;;5134354;27;19919;-56
2023/01/18 14:36:48;;;;;;;;;;;4.10;99.90;;;;;;5123933;27;19919;-54
2023/01/18 14:39:16;;;;;;;;;;;4.00;99.90;;;;;;5117706;27;19937;-53
2023/01/18 14:41:43;;;;;;;;;;;4.00;99.90;;;;;;5131854;27;19920;-56
2023/01/18 14:44:20;;;;;;;;;;;4.00;99.90;;;;;;5130345;27;20057;-56
2023/01/18 14:46:49;;;;;;;;;;;4.00;99.90;;;;;;5095464;28;20327;-54
2023/01/18 14:49:17;;;;;;;;;;;4.00;99.90;;;;;;5114985;27;19912;-54
2023/01/18 14:51:47;;;;;;;;;;;3.90;99.90;;;;;;5128343;27;20481;-55
2023/01/18 14:54:15;;;;;;;;;;;3.90;99.90;;;;;;5122893;27;20301;-54
2023/01/18 14:56:41;;;;;;;;;;;3.90;99.90;;;;;;5120097;27;20458;-55
2023/01/18 14:59:23;;;;;;;;;;;3.90;99.90;;;;;;5117097;27;20002;-55
2023/01/18 15:01:53;;;;;;;;;;;3.90;99.90;;;;;;5131421;27;19955;-55
2023/01/18 15:04:30;;;;;;;;;;;3.90;99.90;;;;;;5134803;27;19931;-56